createdAt,value
2023-01-22T00:00:36.966Z,17.20
2023-01-22T00:01:19.550Z,18.17
2023-01-22T00:02:01.362Z,18.17
2023-01-22T00:02:45.403Z,18.40
2023-01-22T00:03:27.211Z,17.87
2023-01-22T00:04:09.465Z,17.00
2023-01-22T00:04:51.428Z,18.03
2023-01-22T00:05:33.573Z,18.50
2023-01-22T00:06:15.328Z,17.87
2023-01-22T00:06:57.036Z,17.93
2023-01-22T00:07:38.733Z,19.97
2023-01-22T00:08:20.679Z,18.42
2023-01-22T00:09:03.823Z,17.35
2023-01-22T00:09:45.644Z,17.30
2023-01-22T00:10:27.375Z,16.80
2023-01-22T00:11:09.977Z,16.80
2023-01-22T00:11:52.390Z,18.53
2023-01-22T00:12:35.297Z,16.17
2023-01-22T00:13:17.308Z,16.92
2023-01-22T00:13:59.005Z,17.07
2023-01-22T00:14:40.792Z,16.67
2023-01-22T00:15:22.664Z,16.80
2023-01-22T00:16:04.943Z,17.25
2023-01-22T00:16:46.657Z,16.95
2023-01-22T00:17:30.182Z,16.83
2023-01-22T00:18:11.890Z,17.05
2023-01-22T00:18:53.587Z,16.50
2023-01-22T00:19:35.241Z,16.97
2023-01-22T00:20:17.644Z,16.60
2023-01-22T00:21:00.340Z,15.80
2023-01-22T00:21:42.079Z,16.20
2023-01-22T00:22:23.747Z,16.20
2023-01-22T00:23:05.593Z,16.50
2023-01-22T00:23:47.249Z,14.37
2023-01-22T00:24:28.932Z,15.30
2023-01-22T00:25:12.302Z,15.23
2023-01-22T00:26:06.240Z,15.10
2023-01-22T00:26:47.979Z,16.53
2023-01-22T00:27:29.667Z,16.23
2023-01-22T00:28:12.465Z,17.10
2023-01-22T00:28:54.846Z,16.52
2023-01-22T00:29:37.552Z,16.88
2023-01-22T00:30:19.876Z,16.73
2023-01-22T00:31:03.482Z,16.15
2023-01-22T00:31:45.310Z,15.98
2023-01-22T00:32:28.909Z,17.27
2023-01-22T00:33:10.656Z,16.42
2023-01-22T00:33:52.413Z,15.20
2023-01-22T00:34:34.107Z,17.45
2023-01-22T00:35:15.894Z,16.10
2023-01-22T00:36:04.197Z,16.05
2023-01-22T00:36:45.877Z,15.57
2023-01-22T00:37:27.584Z,15.80
2023-01-22T00:38:09.344Z,16.23
2023-01-22T00:38:51.862Z,16.30
2023-01-22T00:39:33.573Z,14.33
2023-01-22T00:40:16.819Z,15.00
2023-01-22T00:41:05.821Z,15.23
2023-01-22T00:41:49.639Z,14.18
2023-01-22T00:42:31.671Z,14.50
2023-01-22T00:43:13.364Z,14.90
2023-01-22T00:43:55.338Z,13.98
2023-01-22T00:44:36.951Z,14.15
2023-01-22T00:45:18.704Z,14.17
2023-01-22T00:46:01.244Z,14.13
2023-01-22T00:46:43.013Z,14.40
2023-01-22T00:47:24.802Z,13.63
2023-01-22T00:48:06.608Z,14.25
2023-01-22T00:48:51.248Z,13.97
2023-01-22T00:49:33.139Z,14.23
2023-01-22T00:50:15.425Z,13.63
2023-01-22T00:50:57.480Z,14.98
2023-01-22T00:51:39.639Z,14.60
2023-01-22T00:52:21.503Z,14.27
2023-01-22T00:53:04.019Z,14.00
2023-01-22T00:53:45.902Z,13.87
2023-01-22T00:54:27.999Z,14.77
2023-01-22T00:55:09.890Z,13.93
2023-01-22T00:55:56.825Z,13.77
2023-01-22T00:56:38.530Z,12.57
2023-01-22T00:57:22.018Z,13.98
2023-01-22T00:58:04.151Z,13.37
2023-01-22T00:58:46.698Z,13.17
2023-01-22T00:59:28.427Z,13.63
2023-01-22T01:00:11.179Z,13.53
2023-01-22T01:00:53.854Z,12.67
2023-01-22T01:01:36.076Z,11.87
2023-01-22T01:02:18.046Z,12.93
2023-01-22T01:03:18.790Z,11.70
2023-01-22T01:04:00.417Z,12.00
2023-01-22T01:04:42.425Z,11.70
2023-01-22T01:05:24.530Z,11.70
2023-01-22T01:06:10.526Z,11.38
2023-01-22T01:06:53.518Z,12.10
2023-01-22T01:07:35.234Z,11.10
2023-01-22T01:08:16.908Z,11.53
2023-01-22T01:08:59.932Z,11.37
2023-01-22T01:09:41.650Z,12.43
2023-01-22T01:10:23.367Z,12.57
2023-01-22T01:11:08.696Z,11.23
2023-01-22T01:11:50.401Z,11.73
2023-01-22T01:12:32.428Z,11.65
2023-01-22T01:13:14.277Z,11.63
2023-01-22T01:13:55.996Z,11.23
2023-01-22T01:14:37.693Z,10.18
2023-01-22T01:15:19.338Z,11.63
2023-01-22T01:16:07.001Z,10.80
2023-01-22T01:16:50.755Z,10.63
2023-01-22T01:17:32.534Z,11.07
2023-01-22T01:18:14.376Z,10.40
2023-01-22T01:19:04.555Z,10.73
2023-01-22T01:19:46.278Z,11.18
2023-01-22T01:20:28.009Z,10.30
2023-01-22T01:21:11.922Z,9.80
2023-01-22T01:21:53.542Z,10.50
2023-01-22T01:22:35.465Z,10.98
2023-01-22T01:23:17.097Z,10.68
2023-01-22T01:23:59.951Z,10.68
2023-01-22T01:24:41.701Z,10.95
2023-01-22T01:25:23.519Z,10.57
2023-01-22T01:26:09.912Z,9.80
2023-01-22T01:26:53.430Z,10.80
2023-01-22T01:27:35.179Z,9.47
2023-01-22T01:28:17.500Z,10.87
2023-01-22T01:28:59.204Z,10.17
2023-01-22T01:29:40.880Z,8.93
2023-01-22T01:30:22.524Z,9.45
2023-01-22T01:31:06.541Z,9.98
2023-01-22T01:31:53.170Z,9.67
2023-01-22T01:32:35.005Z,10.13
2023-01-22T01:33:16.644Z,9.70
2023-01-22T01:33:58.473Z,9.75
2023-01-22T01:34:40.217Z,9.55
2023-01-22T01:35:24.228Z,10.00
2023-01-22T01:36:10.097Z,10.55
2023-01-22T01:36:51.914Z,9.77
2023-01-22T01:37:33.622Z,9.60
2023-01-22T01:38:15.398Z,10.82
2023-01-22T01:38:57.626Z,11.30
2023-01-22T01:39:39.307Z,10.63
2023-01-22T01:40:21.010Z,11.00
2023-01-22T01:41:03.682Z,10.53
2023-01-22T01:41:45.543Z,9.30
2023-01-22T01:42:34.718Z,9.85
2023-01-22T01:43:17.540Z,10.48
2023-01-22T01:44:19.547Z,10.87
2023-01-22T01:45:35.274Z,11.10
2023-01-22T01:46:23.916Z,11.13
2023-01-22T01:47:19.550Z,9.17
2023-01-22T01:48:12.174Z,9.03
2023-01-22T01:48:55.316Z,10.10
2023-01-22T01:49:57.298Z,9.50
2023-01-22T01:50:42.467Z,9.80
2023-01-22T01:51:30.101Z,9.37
2023-01-22T01:52:14.510Z,9.87
2023-01-22T01:52:59.467Z,10.63
2023-01-22T01:53:44.183Z,9.40
2023-01-22T01:54:27.489Z,9.83
2023-01-22T01:55:10.961Z,9.97
2023-01-22T01:55:54.676Z,10.10
2023-01-22T01:56:50.866Z,10.47
2023-01-22T01:57:34.964Z,9.67
2023-01-22T01:58:24.049Z,9.77
2023-01-22T01:59:09.172Z,9.70
2023-01-22T01:59:52.605Z,9.93
2023-01-22T02:00:37.768Z,10.05
2023-01-22T02:01:20.113Z,10.90
2023-01-22T02:02:03.625Z,11.25
2023-01-22T02:02:45.465Z,10.60
2023-01-22T02:03:28.672Z,11.60
2023-01-22T02:04:10.444Z,11.70
2023-01-22T02:04:53.303Z,10.43
2023-01-22T02:05:38.092Z,10.90
2023-01-22T02:06:21.118Z,10.52
2023-01-22T02:07:05.481Z,10.10
2023-01-22T02:07:48.790Z,10.30
2023-01-22T02:08:30.872Z,10.27
2023-01-22T02:09:13.263Z,10.73
2023-01-22T02:09:55.094Z,10.45
2023-01-22T02:10:37.974Z,9.68
2023-01-22T02:11:21.613Z,9.90
2023-01-22T02:12:03.873Z,8.95
2023-01-22T02:12:45.582Z,9.50
2023-01-22T02:13:32.456Z,9.73
2023-01-22T02:14:18.285Z,9.60
2023-01-22T02:15:03.670Z,9.65
2023-01-22T02:15:46.618Z,9.23
2023-01-22T02:16:29.656Z,9.67
2023-01-22T02:17:18.336Z,9.77
2023-01-22T02:18:00.022Z,9.45
2023-01-22T02:18:41.740Z,9.65
2023-01-22T02:19:23.515Z,9.43
2023-01-22T02:20:05.714Z,9.13
2023-01-22T02:21:30.817Z,9.45
2023-01-22T02:22:24.427Z,9.57
2023-01-22T02:23:06.467Z,9.15
2023-01-22T02:23:48.254Z,9.55
2023-01-22T02:24:31.601Z,9.60
2023-01-22T02:25:13.224Z,10.18
2023-01-22T02:25:55.821Z,10.38
2023-01-22T02:26:38.552Z,10.50
2023-01-22T02:27:20.511Z,10.63
2023-01-22T02:28:03.417Z,10.80
2023-01-22T02:28:45.058Z,10.63
2023-01-22T02:29:27.223Z,10.98
2023-01-22T02:30:09.531Z,10.02
2023-01-22T02:30:51.299Z,10.30
2023-01-22T02:31:33.956Z,11.07
2023-01-22T02:32:16.149Z,11.40
2023-01-22T02:32:57.886Z,9.87
2023-01-22T02:33:39.914Z,10.15
2023-01-22T02:34:24.569Z,10.27
2023-01-22T02:35:07.039Z,9.98
2023-01-22T02:35:48.825Z,9.48
2023-01-22T02:36:33.417Z,10.40
2023-01-22T02:37:15.168Z,10.07
2023-01-22T02:37:56.867Z,10.73
2023-01-22T02:38:38.692Z,10.63
2023-01-22T02:39:20.488Z,9.98
2023-01-22T02:40:02.261Z,10.02
2023-01-22T02:40:49.314Z,10.93
2023-01-22T02:41:34.101Z,10.50
2023-01-22T02:42:15.773Z,9.95
2023-01-22T02:42:58.396Z,9.85
2023-01-22T02:43:40.741Z,9.90
2023-01-22T02:44:22.585Z,10.07
2023-01-22T02:45:04.859Z,10.32
2023-01-22T02:45:46.636Z,9.55
2023-01-22T02:46:28.547Z,9.45
2023-01-22T02:47:10.256Z,10.10
2023-01-22T02:47:53.049Z,11.25
2023-01-22T02:48:34.791Z,10.48
2023-01-22T02:49:16.574Z,11.20
2023-01-22T02:49:58.373Z,10.05
2023-01-22T02:50:40.128Z,11.43
2023-01-22T02:51:22.311Z,11.05
2023-01-22T02:52:05.006Z,10.50
2023-01-22T02:52:46.771Z,11.03
2023-01-22T02:53:28.518Z,15.98
2023-01-22T02:54:10.208Z,13.38
2023-01-22T02:54:51.896Z,13.93
2023-01-22T02:55:33.622Z,12.48
2023-01-22T02:56:15.405Z,11.55
2023-01-22T02:56:57.169Z,11.90
2023-01-22T02:57:39.095Z,12.10
2023-01-22T02:58:20.802Z,11.75
2023-01-22T02:59:03.841Z,11.40
2023-01-22T02:59:45.671Z,11.20
2023-01-22T03:00:27.445Z,10.70
2023-01-22T03:01:18.931Z,10.90
2023-01-22T03:02:01.464Z,11.70
2023-01-22T03:02:43.294Z,10.93
2023-01-22T03:03:25.066Z,11.83
2023-01-22T03:04:10.973Z,11.70
2023-01-22T03:05:02.002Z,10.70
2023-01-22T03:05:51.710Z,11.50
2023-01-22T03:06:33.597Z,10.53
2023-01-22T03:07:16.020Z,11.50
2023-01-22T03:07:57.895Z,11.73
2023-01-22T03:08:39.575Z,11.02
2023-01-22T03:09:21.274Z,11.38
2023-01-22T03:10:02.947Z,10.90
2023-01-22T03:10:46.108Z,10.48
2023-01-22T03:11:29.968Z,11.13
2023-01-22T03:12:12.480Z,11.55
2023-01-22T03:13:13.154Z,10.85
2023-01-22T03:14:14.771Z,11.40
2023-01-22T03:15:15.017Z,10.70
2023-01-22T03:16:15.341Z,10.20
2023-01-22T03:17:15.945Z,11.83
2023-01-22T03:18:16.195Z,10.65
2023-01-22T03:19:17.073Z,10.87
2023-01-22T03:20:17.368Z,10.83
2023-01-22T03:21:18.645Z,10.83
2023-01-22T03:22:00.579Z,10.33
2023-01-22T03:22:42.322Z,11.30
2023-01-22T03:23:27.912Z,10.68
2023-01-22T03:24:10.227Z,10.40
2023-01-22T03:24:53.101Z,10.10
2023-01-22T03:25:37.738Z,10.50
2023-01-22T03:26:21.545Z,10.60
2023-01-22T03:27:04.508Z,10.63
2023-01-22T03:28:05.994Z,10.57
2023-01-22T03:28:50.563Z,10.07
2023-01-22T03:29:32.312Z,11.35
2023-01-22T03:30:14.517Z,10.80
2023-01-22T03:30:56.320Z,11.73
2023-01-22T03:31:38.632Z,10.50
2023-01-22T03:32:21.284Z,10.40
2023-01-22T03:33:02.974Z,10.88
2023-01-22T03:33:44.823Z,10.88
2023-01-22T03:34:27.224Z,10.70
2023-01-22T03:35:11.234Z,10.10
2023-01-22T03:36:13.148Z,10.23
2023-01-22T03:36:59.505Z,10.18
2023-01-22T03:37:41.199Z,11.35
2023-01-22T03:38:23.195Z,10.47
2023-01-22T03:39:04.972Z,10.63
2023-01-22T03:39:46.688Z,11.52
2023-01-22T03:40:36.776Z,9.88
2023-01-22T03:41:18.654Z,11.53
2023-01-22T03:42:02.227Z,11.73
2023-01-22T03:42:44.578Z,11.37
2023-01-22T03:43:28.032Z,10.82
2023-01-22T03:44:11.684Z,11.45
2023-01-22T03:44:53.430Z,10.88
2023-01-22T03:45:35.562Z,11.57
2023-01-22T03:46:20.168Z,11.17
2023-01-22T03:47:06.107Z,10.80
2023-01-22T03:47:47.961Z,11.50
2023-01-22T03:48:42.019Z,10.70
2023-01-22T03:49:23.696Z,12.00
2023-01-22T03:50:08.400Z,10.40
2023-01-22T03:50:52.415Z,11.82
2023-01-22T03:51:34.465Z,12.07
2023-01-22T03:52:17.109Z,12.20
2023-01-22T03:52:58.908Z,13.02
2023-01-22T03:53:42.169Z,12.30
2023-01-22T03:54:23.987Z,11.60
2023-01-22T03:55:06.169Z,11.90
2023-01-22T03:55:57.380Z,11.52
2023-01-22T03:56:39.787Z,12.37
2023-01-22T03:57:30.959Z,11.80
2023-01-22T03:58:12.721Z,12.35
2023-01-22T03:58:54.536Z,12.43
2023-01-22T03:59:37.689Z,12.27
2023-01-22T04:00:20.357Z,12.47
2023-01-22T04:01:09.469Z,12.18
2023-01-22T04:01:52.761Z,11.73
2023-01-22T04:02:35.112Z,12.27
2023-01-22T04:03:28.307Z,11.63
2023-01-22T04:04:10.622Z,12.50
2023-01-22T04:04:52.293Z,12.33
2023-01-22T04:05:34.053Z,11.77
2023-01-22T04:06:16.220Z,11.68
2023-01-22T04:06:58.159Z,12.40
2023-01-22T04:07:39.870Z,11.73
2023-01-22T04:08:25.032Z,12.57
2023-01-22T04:09:08.946Z,12.13
2023-01-22T04:10:00.605Z,12.25
2023-01-22T04:10:42.967Z,11.93
2023-01-22T04:11:24.969Z,12.40
2023-01-22T04:12:07.726Z,12.88
2023-01-22T04:12:49.507Z,13.15
2023-01-22T04:13:36.147Z,12.13
2023-01-22T04:14:17.824Z,12.27
2023-01-22T04:15:09.644Z,12.60
2023-01-22T04:15:51.420Z,11.80
2023-01-22T04:17:11.419Z,11.70
2023-01-22T04:18:16.065Z,12.07
2023-01-22T04:19:18.303Z,11.73
2023-01-22T04:20:07.971Z,11.90
2023-01-22T04:21:12.971Z,11.75
2023-01-22T04:21:58.770Z,12.68
2023-01-22T04:22:40.425Z,12.02
2023-01-22T04:23:24.759Z,12.52
2023-01-22T04:24:07.744Z,11.63
2023-01-22T04:24:49.749Z,11.80
2023-01-22T04:25:31.480Z,11.50
2023-01-22T04:26:13.397Z,12.68
2023-01-22T04:26:55.300Z,12.15
2023-01-22T04:27:37.839Z,11.57
2023-01-22T04:28:20.627Z,12.13
2023-01-22T04:29:05.859Z,12.18
2023-01-22T04:29:47.698Z,12.77
2023-01-22T04:30:29.682Z,13.82
2023-01-22T04:31:21.713Z,11.90
2023-01-22T04:32:23.763Z,11.45
2023-01-22T04:33:13.629Z,12.57
2023-01-22T04:34:12.554Z,11.68
2023-01-22T04:35:01.666Z,11.75
2023-01-22T04:35:53.084Z,11.80
2023-01-22T04:36:34.797Z,12.02
2023-01-22T04:37:16.469Z,12.68
2023-01-22T04:37:58.901Z,12.45
2023-01-22T04:38:40.649Z,12.43
2023-01-22T04:39:23.714Z,11.30
2023-01-22T04:40:05.979Z,11.90
2023-01-22T04:40:51.151Z,12.17
2023-01-22T04:41:33.005Z,12.60
2023-01-22T04:42:14.748Z,12.68
2023-01-22T04:43:01.364Z,13.18
2023-01-22T04:43:43.239Z,12.63
2023-01-22T04:44:24.929Z,12.85
2023-01-22T04:45:07.649Z,11.93
2023-01-22T04:45:50.720Z,13.50
2023-01-22T04:46:35.113Z,11.77
2023-01-22T04:47:17.166Z,12.30
2023-01-22T04:47:59.331Z,13.57
2023-01-22T04:48:41.489Z,12.18
2023-01-22T04:49:23.166Z,12.40
2023-01-22T04:50:06.789Z,12.60
2023-01-22T04:50:48.749Z,13.25
2023-01-22T04:51:30.563Z,11.65
2023-01-22T04:52:12.282Z,12.35
2023-01-22T04:52:55.987Z,12.75
2023-01-22T04:53:37.893Z,11.38
2023-01-22T04:54:22.548Z,12.10
2023-01-22T04:55:05.402Z,11.30
2023-01-22T04:55:58.898Z,11.68
2023-01-22T04:56:41.526Z,11.15
2023-01-22T04:57:23.521Z,10.73
2023-01-22T04:58:05.666Z,10.80
2023-01-22T04:58:47.688Z,10.85
2023-01-22T04:59:30.096Z,11.30
2023-01-22T05:00:14.218Z,10.82
2023-01-22T05:00:57.320Z,11.50
2023-01-22T05:01:39.118Z,10.80
2023-01-22T05:02:21.000Z,10.10
2023-01-22T05:03:04.839Z,9.90
2023-01-22T05:03:46.597Z,9.63
2023-01-22T05:04:28.335Z,10.25
2023-01-22T05:05:10.431Z,10.93
2023-01-22T05:05:52.093Z,10.75
2023-01-22T05:06:33.766Z,9.40
2023-01-22T05:07:16.465Z,8.73
2023-01-22T05:07:59.457Z,9.65
2023-01-22T05:08:41.129Z,9.73
2023-01-22T05:09:25.882Z,10.52
2023-01-22T05:10:10.519Z,10.27
2023-01-22T05:10:52.207Z,9.48
2023-01-22T05:11:40.774Z,10.32
2023-01-22T05:12:22.475Z,9.67
2023-01-22T05:13:07.432Z,9.65
2023-01-22T05:13:49.714Z,9.35
2023-01-22T05:14:32.407Z,8.95
2023-01-22T05:15:24.115Z,9.95
2023-01-22T05:16:08.177Z,11.27
2023-01-22T05:16:50.680Z,11.68
2023-01-22T05:17:32.432Z,10.73
2023-01-22T05:18:14.112Z,11.52
2023-01-22T05:19:05.239Z,11.07
2023-01-22T05:19:47.011Z,11.48
2023-01-22T05:20:33.552Z,12.65
2023-01-22T05:21:15.332Z,15.45
2023-01-22T05:21:57.151Z,16.88
2023-01-22T05:22:39.012Z,15.85
2023-01-22T05:23:21.104Z,14.52
2023-01-22T05:24:02.923Z,14.32
2023-01-22T05:24:45.152Z,14.45
2023-01-22T05:25:26.965Z,12.98
2023-01-22T05:26:08.825Z,11.48
2023-01-22T05:26:55.803Z,12.02
2023-01-22T05:27:43.232Z,12.18
2023-01-22T05:28:30.290Z,12.32
2023-01-22T05:29:41.344Z,13.43
2023-01-22T05:30:39.268Z,11.45
2023-01-22T05:31:45.632Z,11.07
2023-01-22T05:32:43.856Z,11.23
2023-01-22T05:33:29.393Z,11.07
2023-01-22T05:34:11.353Z,11.88
2023-01-22T05:34:53.020Z,12.30
2023-01-22T05:35:34.829Z,13.02
2023-01-22T05:36:16.591Z,11.48
2023-01-22T05:36:58.875Z,11.60
2023-01-22T05:37:42.251Z,11.63
2023-01-22T05:38:24.336Z,11.77
2023-01-22T05:39:06.258Z,11.07
2023-01-22T05:39:48.718Z,12.07
2023-01-22T05:40:32.330Z,12.88
2023-01-22T05:41:14.041Z,12.43
2023-01-22T05:41:56.158Z,11.70
2023-01-22T05:42:38.050Z,12.93
2023-01-22T05:43:21.916Z,12.00
2023-01-22T05:44:13.609Z,13.85
2023-01-22T05:44:56.275Z,13.75
2023-01-22T05:45:39.830Z,12.68
2023-01-22T05:46:47.522Z,11.60
2023-01-22T05:47:39.999Z,12.55
2023-01-22T05:48:41.617Z,11.45
2023-01-22T05:49:28.899Z,11.48
2023-01-22T05:50:12.132Z,10.82
2023-01-22T05:50:53.981Z,12.10
2023-01-22T05:51:35.820Z,12.52
2023-01-22T05:52:17.498Z,12.10
2023-01-22T05:53:00.148Z,11.68
2023-01-22T05:53:41.799Z,12.20
2023-01-22T05:54:23.543Z,11.40
2023-01-22T05:55:06.656Z,11.38
2023-01-22T05:55:55.191Z,11.82
2023-01-22T05:56:37.009Z,12.45
2023-01-22T05:57:18.946Z,12.20
2023-01-22T05:58:01.385Z,11.77
2023-01-22T05:58:43.587Z,12.40
2023-01-22T05:59:25.425Z,12.13
2023-01-22T06:00:14.346Z,13.00
2023-01-22T06:01:02.699Z,13.00
2023-01-22T06:01:50.399Z,11.93
2023-01-22T06:02:32.319Z,12.02
2023-01-22T06:03:14.129Z,11.20
2023-01-22T06:04:02.214Z,11.15
2023-01-22T06:04:43.981Z,11.60
2023-01-22T06:05:35.801Z,11.48
2023-01-22T06:06:21.465Z,10.73
2023-01-22T06:07:03.217Z,10.18
2023-01-22T06:07:44.868Z,10.38
2023-01-22T06:08:27.527Z,10.95
2023-01-22T06:09:12.949Z,9.65
2023-01-22T06:09:55.142Z,9.77
2023-01-22T06:10:36.890Z,10.68
2023-01-22T06:11:19.581Z,10.47
2023-01-22T06:12:01.468Z,10.15
2023-01-22T06:12:43.276Z,9.50
2023-01-22T06:13:24.984Z,9.95
2023-01-22T06:14:10.376Z,9.80
2023-01-22T06:14:54.139Z,9.02
2023-01-22T06:15:36.134Z,9.38
2023-01-22T06:16:31.252Z,9.95
2023-01-22T06:17:25.976Z,9.63
2023-01-22T06:18:10.456Z,9.25
2023-01-22T06:18:53.378Z,9.13
2023-01-22T06:19:35.056Z,9.55
2023-01-22T06:20:17.465Z,9.20
2023-01-22T06:21:00.943Z,9.30
2023-01-22T06:21:43.832Z,9.60
2023-01-22T06:22:26.149Z,9.32
2023-01-22T06:23:11.847Z,9.07
2023-01-22T06:23:53.730Z,9.20
2023-01-22T06:24:35.558Z,9.30
2023-01-22T06:25:17.257Z,9.90
2023-01-22T06:26:14.620Z,9.43
2023-01-22T06:26:57.643Z,8.73
2023-01-22T06:27:46.904Z,8.65
2023-01-22T06:28:29.284Z,9.00
2023-01-22T06:29:11.094Z,8.73
2023-01-22T06:29:53.831Z,9.38
2023-01-22T06:30:36.851Z,8.60
2023-01-22T06:31:18.688Z,8.30
2023-01-22T06:32:00.807Z,8.57
2023-01-22T06:32:42.474Z,7.53
2023-01-22T06:33:25.965Z,7.70
2023-01-22T06:34:08.754Z,7.50
2023-01-22T06:34:50.451Z,9.27
2023-01-22T06:35:33.880Z,9.73
2023-01-22T06:36:16.170Z,10.15
2023-01-22T06:36:58.076Z,10.18
2023-01-22T06:37:41.892Z,11.20
2023-01-22T06:38:24.245Z,11.27
2023-01-22T06:39:06.205Z,11.52
2023-01-22T06:39:53.785Z,10.93
2023-01-22T06:41:01.663Z,11.70
2023-01-22T06:41:47.920Z,12.18
2023-01-22T06:42:31.054Z,11.80
2023-01-22T06:43:12.716Z,10.52
2023-01-22T06:43:54.418Z,11.27
2023-01-22T06:44:36.070Z,12.35
2023-01-22T06:45:17.824Z,10.90
2023-01-22T06:46:05.416Z,11.40
2023-01-22T06:47:06.066Z,11.23
2023-01-22T06:47:47.894Z,10.80
2023-01-22T06:48:30.064Z,10.52
2023-01-22T06:49:13.358Z,10.00
2023-01-22T06:49:55.084Z,9.50
2023-01-22T06:50:36.885Z,9.93
2023-01-22T06:51:18.612Z,9.07
2023-01-22T06:52:00.463Z,9.93
2023-01-22T06:52:42.735Z,9.15
2023-01-22T06:53:24.521Z,9.50
2023-01-22T06:54:06.371Z,9.23
2023-01-22T06:54:48.187Z,9.60
2023-01-22T06:55:30.548Z,10.32
2023-01-22T06:56:12.303Z,10.25
2023-01-22T06:56:56.319Z,10.48
2023-01-22T06:57:39.245Z,9.65
2023-01-22T06:58:21.224Z,9.90
2023-01-22T06:59:03.003Z,9.55
2023-01-22T06:59:44.712Z,9.33
2023-01-22T07:00:26.485Z,10.50
2023-01-22T07:01:09.935Z,9.60
2023-01-22T07:01:51.703Z,9.02
2023-01-22T07:02:33.447Z,10.52
2023-01-22T07:03:15.179Z,9.17
2023-01-22T07:03:56.933Z,10.98
2023-01-22T07:04:38.618Z,9.60
2023-01-22T07:05:21.902Z,10.35
2023-01-22T07:06:05.284Z,11.33
2023-01-22T07:06:47.035Z,9.40
2023-01-22T07:07:28.851Z,9.07
2023-01-22T07:08:15.170Z,9.48
2023-01-22T07:08:56.959Z,9.55
2023-01-22T07:09:38.637Z,9.23
2023-01-22T07:10:20.939Z,9.15
2023-01-22T07:11:02.933Z,8.82
2023-01-22T07:11:44.681Z,9.37
2023-01-22T07:12:26.360Z,8.65
2023-01-22T07:13:10.120Z,8.98
2023-01-22T07:13:51.891Z,9.50
2023-01-22T07:14:37.484Z,9.90
2023-01-22T07:15:19.444Z,13.60
2023-01-22T07:16:03.067Z,19.73
2023-01-22T07:16:44.808Z,18.60
2023-01-22T07:17:26.584Z,20.30
2023-01-22T07:18:10.748Z,20.67
2023-01-22T07:18:52.421Z,17.05
2023-01-22T07:19:34.239Z,16.98
2023-01-22T07:20:16.368Z,17.05
2023-01-22T07:21:02.367Z,16.02
2023-01-22T07:21:44.053Z,15.00
2023-01-22T07:22:25.734Z,19.75
2023-01-22T07:23:08.327Z,25.08
2023-01-22T07:23:50.048Z,16.58
2023-01-22T07:24:31.677Z,15.48
2023-01-22T07:25:13.461Z,19.15
2023-01-22T07:25:55.157Z,14.23
2023-01-22T07:26:38.657Z,11.43
2023-01-22T07:27:20.347Z,11.73
2023-01-22T07:28:03.351Z,11.43
2023-01-22T07:28:45.324Z,10.52
2023-01-22T07:29:27.023Z,11.68
2023-01-22T07:30:09.603Z,11.63
2023-01-22T07:30:51.433Z,11.52
2023-01-22T07:31:33.212Z,11.07
2023-01-22T07:32:14.940Z,11.02
2023-01-22T07:33:00.623Z,10.57
2023-01-22T07:33:42.631Z,11.52
2023-01-22T07:34:24.403Z,11.60
2023-01-22T07:35:06.388Z,11.05
2023-01-22T07:35:56.489Z,11.75
2023-01-22T07:36:38.179Z,9.93
2023-01-22T07:37:19.815Z,11.88
2023-01-22T07:38:02.091Z,10.55
2023-01-22T07:38:43.728Z,11.65
2023-01-22T07:39:25.383Z,11.70
2023-01-22T07:40:07.646Z,10.93
2023-01-22T07:40:49.737Z,10.63
2023-01-22T07:41:31.988Z,10.13
2023-01-22T07:42:14.521Z,10.63
2023-01-22T07:42:56.597Z,11.45
2023-01-22T07:43:38.292Z,10.43
2023-01-22T07:44:20.320Z,10.68
2023-01-22T07:45:01.973Z,11.77
2023-01-22T07:45:43.770Z,10.48
2023-01-22T07:46:25.680Z,9.73
2023-01-22T07:47:07.750Z,10.25
2023-01-22T07:47:54.664Z,10.95
2023-01-22T07:48:37.488Z,10.90
2023-01-22T07:49:19.148Z,11.40
2023-01-22T07:50:00.855Z,10.68
2023-01-22T07:50:42.599Z,12.15
2023-01-22T07:51:24.317Z,10.77
2023-01-22T07:52:06.015Z,11.13
2023-01-22T07:52:48.208Z,10.77
2023-01-22T07:53:29.951Z,10.18
2023-01-22T07:54:11.616Z,10.75
2023-01-22T07:54:53.367Z,10.18
2023-01-22T07:55:35.069Z,10.70
2023-01-22T07:56:19.058Z,10.80
2023-01-22T07:57:00.738Z,9.80
2023-01-22T07:57:42.509Z,9.93
2023-01-22T07:58:24.543Z,9.77
2023-01-22T07:59:06.351Z,10.52
2023-01-22T07:59:48.094Z,10.45
2023-01-22T08:00:31.191Z,10.40
2023-01-22T08:01:13.135Z,11.00
2023-01-22T08:01:55.287Z,9.85
2023-01-22T08:02:38.433Z,9.60
2023-01-22T08:03:20.141Z,9.82
2023-01-22T08:04:02.240Z,9.30
2023-01-22T08:04:44.080Z,9.32
2023-01-22T08:05:26.156Z,9.20
2023-01-22T08:06:12.471Z,10.40
2023-01-22T08:06:54.136Z,9.75
2023-01-22T08:07:35.979Z,10.13
2023-01-22T08:08:20.522Z,10.68
2023-01-22T08:09:02.209Z,10.65
2023-01-22T08:09:44.388Z,10.25
2023-01-22T08:10:26.572Z,10.63
2023-01-22T08:11:08.722Z,11.00
2023-01-22T08:11:51.336Z,11.82
2023-01-22T08:12:33.206Z,10.65
2023-01-22T08:13:15.078Z,11.05
2023-01-22T08:13:56.891Z,11.30
2023-01-22T08:14:38.634Z,10.60
2023-01-22T08:15:20.371Z,10.77
2023-01-22T08:16:02.226Z,11.30
2023-01-22T08:16:44.177Z,10.52
2023-01-22T08:17:25.946Z,11.25
2023-01-22T08:18:07.788Z,11.32
2023-01-22T08:18:49.459Z,10.77
2023-01-22T08:19:31.186Z,10.93
2023-01-22T08:20:12.962Z,11.30
2023-01-22T08:20:54.683Z,11.30
2023-01-22T08:21:36.510Z,11.30
2023-01-22T08:22:18.282Z,10.27
2023-01-22T08:23:00.794Z,11.32
2023-01-22T08:23:44.972Z,11.00
2023-01-22T08:24:28.566Z,12.00
2023-01-22T08:25:10.348Z,11.27
2023-01-22T08:25:52.103Z,11.18
2023-01-22T08:26:33.903Z,10.65
2023-01-22T08:27:16.165Z,11.13
2023-01-22T08:28:02.811Z,12.10
2023-01-22T08:28:44.458Z,11.95
2023-01-22T08:29:26.189Z,10.90
2023-01-22T08:30:11.503Z,12.18
2023-01-22T08:31:00.506Z,11.18
2023-01-22T08:31:42.472Z,11.50
2023-01-22T08:32:24.386Z,12.35
2023-01-22T08:33:06.126Z,12.85
2023-01-22T08:33:47.895Z,12.20
2023-01-22T08:34:29.712Z,11.63
2023-01-22T08:35:13.121Z,10.60
2023-01-22T08:35:54.889Z,11.63
2023-01-22T08:36:36.572Z,11.55
2023-01-22T08:37:19.181Z,12.02
2023-01-22T08:38:01.476Z,13.45
2023-01-22T08:38:43.119Z,11.45
2023-01-22T08:39:24.913Z,11.63
2023-01-22T08:40:07.645Z,11.63
2023-01-22T08:40:52.886Z,11.02
2023-01-22T08:41:34.607Z,11.32
2023-01-22T08:42:16.633Z,11.27
2023-01-22T08:42:58.513Z,11.10
2023-01-22T08:43:40.208Z,10.32
2023-01-22T08:44:21.972Z,10.45
2023-01-22T08:45:04.263Z,11.25
2023-01-22T08:45:49.277Z,10.32
2023-01-22T08:46:31.501Z,9.35
2023-01-22T08:47:13.415Z,10.27
2023-01-22T08:47:59.797Z,9.93
2023-01-22T08:48:44.075Z,9.90
2023-01-22T08:49:26.472Z,9.60
2023-01-22T08:50:08.795Z,9.93
2023-01-22T08:50:50.565Z,9.60
2023-01-22T08:51:33.199Z,9.15
2023-01-22T08:52:14.902Z,8.75
2023-01-22T08:52:57.902Z,9.88
2023-01-22T08:53:39.628Z,8.70
2023-01-22T08:54:21.342Z,8.48
2023-01-22T08:55:09.755Z,7.97
2023-01-22T08:55:51.630Z,9.52
2023-01-22T08:56:33.367Z,8.48
2023-01-22T08:57:15.070Z,7.97
2023-01-22T08:57:57.272Z,8.55
2023-01-22T08:58:39.283Z,7.63
2023-01-22T08:59:21.021Z,8.18
2023-01-22T09:00:04.057Z,7.50
2023-01-22T09:00:45.843Z,8.05
2023-01-22T09:01:27.704Z,8.00
2023-01-22T09:02:13.629Z,8.13
2023-01-22T09:02:59.673Z,8.77
2023-01-22T09:03:41.439Z,7.43
2023-01-22T09:04:23.259Z,8.05
2023-01-22T09:05:05.378Z,8.60
2023-01-22T09:05:47.104Z,8.32
2023-01-22T09:06:28.926Z,8.30
2023-01-22T09:07:10.848Z,7.97
2023-01-22T09:07:52.708Z,7.13
2023-01-22T09:08:34.411Z,7.38
2023-01-22T09:09:16.274Z,6.63
2023-01-22T09:09:57.959Z,7.18
2023-01-22T09:10:40.109Z,7.03
2023-01-22T09:11:21.803Z,7.60
2023-01-22T09:12:03.663Z,7.68
2023-01-22T09:12:45.383Z,7.07
2023-01-22T09:13:27.099Z,8.07
2023-01-22T09:14:09.979Z,8.63
2023-01-22T09:14:52.033Z,7.43
2023-01-22T09:15:34.066Z,6.80
2023-01-22T09:16:15.962Z,6.43
2023-01-22T09:16:57.671Z,6.55
2023-01-22T09:17:41.077Z,6.50
2023-01-22T09:18:23.229Z,6.18
2023-01-22T09:19:06.027Z,6.50
2023-01-22T09:19:47.929Z,5.53
2023-01-22T09:20:29.634Z,10.00
2023-01-22T09:21:11.309Z,10.32
2023-01-22T09:21:53.086Z,9.63
2023-01-22T09:22:35.208Z,7.65
2023-01-22T09:23:17.557Z,5.68
2023-01-22T09:23:59.811Z,5.53
2023-01-22T09:24:41.541Z,4.90
2023-01-22T09:25:23.330Z,5.50
2023-01-22T09:26:05.160Z,5.30
2023-01-22T09:26:46.897Z,5.32
2023-01-22T09:27:28.622Z,6.07
2023-01-22T09:28:12.362Z,6.00
2023-01-22T09:28:54.210Z,5.78
2023-01-22T09:29:35.890Z,5.63
2023-01-22T09:30:18.017Z,4.90